sensor_id;sensor_type;location;lat;lon;timestamp;temperature;humidity
54168;DHT22;68429;50.958;3.592;2024-01-30T00:01:15;10.80;99.90
54168;DHT22;68429;50.958;3.592;2024-01-30T00:03:41;10.90;99.90
54168;DHT22;68429;50.958;3.592;2024-01-30T00:06:07;10.80;99.90
54168;DHT22;68429;50.958;3.592;2024-01-30T00:08:33;10.90;99.90
54168;DHT22;68429;50.958;3.592;2024-01-30T00:10:59;10.90;99.90
54168;DHT22;68429;50.958;3.592;2024-01-30T00:13:24;10.90;99.90
54168;DHT22;68429;50.958;3.592;2024-01-30T00:15:50;10.90;99.90
54168;DHT22;68429;50.958;3.592;2024-01-30T00:18:16;11.00;99.90
54168;DHT22;68429;50.958;3.592;2024-01-30T00:20:41;11.00;99.90
54168;DHT22;68429;50.958;3.592;2024-01-30T00:23:08;11.00;99.90
54168;DHT22;68429;50.958;3.592;2024-01-30T00:25:34;10.90;99.90
54168;DHT22;68429;50.958;3.592;2024-01-30T00:28:00;10.90;99.90
54168;DHT22;68429;50.958;3.592;2024-01-30T00:30:25;10.90;99.90
54168;DHT22;68429;50.958;3.592;2024-01-30T00:32:51;10.80;99.90
54168;DHT22;68429;50.958;3.592;2024-01-30T00:35:17;10.80;99.90
54168;DHT22;68429;50.958;3.592;2024-01-30T00:37:43;10.80;99.90
54168;DHT22;68429;50.958;3.592;2024-01-30T00:40:09;10.80;99.90
54168;DHT22;68429;50.958;3.592;2024-01-30T00:42:43;10.80;99.90
54168;DHT22;68429;50.958;3.592;2024-01-30T00:45:16;10.80;99.90
54168;DHT22;68429;50.958;3.592;2024-01-30T00:47:42;10.90;99.90
54168;DHT22;68429;50.958;3.592;2024-01-30T00:50:08;10.90;99.90
54168;DHT22;68429;50.958;3.592;2024-01-30T00:52:34;10.70;99.90
54168;DHT22;68429;50.958;3.592;2024-01-30T00:55:00;10.60;99.90
54168;DHT22;68429;50.958;3.592;2024-01-30T00:57:26;10.60;99.90
54168;DHT22;68429;50.958;3.592;2024-01-30T00:59:52;10.70;99.90
54168;DHT22;68429;50.958;3.592;2024-01-30T01:02:18;10.70;99.90
54168;DHT22;68429;50.958;3.592;2024-01-30T01:04:44;10.70;99.90
54168;DHT22;68429;50.958;3.592;2024-01-30T01:07:10;10.70;99.90
54168;DHT22;68429;50.958;3.592;2024-01-30T01:09:36;10.70;99.90
54168;DHT22;68429;50.958;3.592;2024-01-30T01:12:03;10.80;99.90
54168;DHT22;68429;50.958;3.592;2024-01-30T01:14:29;10.80;99.90
54168;DHT22;68429;50.958;3.592;2024-01-30T01:16:55;10.80;99.90
54168;DHT22;68429;50.958;3.592;2024-01-30T01:19:21;10.80;99.90
54168;DHT22;68429;50.958;3.592;2024-01-30T01:21:46;10.80;99.90
54168;DHT22;68429;50.958;3.592;2024-01-30T01:24:12;10.80;99.90
54168;DHT22;68429;50.958;3.592;2024-01-30T01:26:38;10.70;99.90
54168;DHT22;68429;50.958;3.592;2024-01-30T01:29:04;10.70;99.90
54168;DHT22;68429;50.958;3.592;2024-01-30T01:31:36;10.70;99.90
54168;DHT22;68429;50.958;3.592;2024-01-30T01:34:05;10.70;99.90
54168;DHT22;68429;50.958;3.592;2024-01-30T01:36:31;10.70;99.90
54168;DHT22;68429;50.958;3.592;2024-01-30T01:38:57;10.70;99.90
54168;DHT22;68429;50.958;3.592;2024-01-30T01:41:22;10.70;99.90
54168;DHT22;68429;50.958;3.592;2024-01-30T01:43:48;10.70;99.90
54168;DHT22;68429;50.958;3.592;2024-01-30T01:46:14;10.80;99.90
54168;DHT22;68429;50.958;3.592;2024-01-30T01:48:41;10.80;99.90
54168;DHT22;68429;50.958;3.592;2024-01-30T01:51:09;10.80;99.90
54168;DHT22;68429;50.958;3.592;2024-01-30T01:53:35;10.90;99.90
54168;DHT22;68429;50.958;3.592;2024-01-30T01:56:00;10.80;99.90
54168;DHT22;68429;50.958;3.592;2024-01-30T01:58:27;10.90;99.90
54168;DHT22;68429;50.958;3.592;2024-01-30T02:00:57;10.90;99.90
54168;DHT22;68429;50.958;3.592;2024-01-30T02:03:24;11.00;99.90
54168;DHT22;68429;50.958;3.592;2024-01-30T02:05:50;11.00;99.90
54168;DHT22;68429;50.958;3.592;2024-01-30T02:08:17;11.00;99.90
54168;DHT22;68429;50.958;3.592;2024-01-30T02:10:42;11.00;99.90
54168;DHT22;68429;50.958;3.592;2024-01-30T02:13:08;10.90;99.90
54168;DHT22;68429;50.958;3.592;2024-01-30T02:15:34;11.00;99.90
54168;DHT22;68429;50.958;3.592;2024-01-30T02:17:59;11.00;99.90
54168;DHT22;68429;50.958;3.592;2024-01-30T02:20:25;10.90;99.90
54168;DHT22;68429;50.958;3.592;2024-01-30T02:22:54;11.00;99.90
54168;DHT22;68429;50.958;3.592;2024-01-30T02:25:33;11.00;99.90
54168;DHT22;68429;50.958;3.592;2024-01-30T02:27:59;10.90;99.90
54168;DHT22;68429;50.958;3.592;2024-01-30T02:30:24;10.90;99.90
54168;DHT22;68429;50.958;3.592;2024-01-30T02:32:50;11.00;99.90
54168;DHT22;68429;50.958;3.592;2024-01-30T02:35:16;10.90;99.90
54168;DHT22;68429;50.958;3.592;2024-01-30T02:37:41;10.90;99.90
54168;DHT22;68429;50.958;3.592;2024-01-30T02:40:07;10.90;99.90
54168;DHT22;68429;50.958;3.592;2024-01-30T02:42:33;10.90;99.90
54168;DHT22;68429;50.958;3.592;2024-01-30T02:44:58;10.80;99.90
54168;DHT22;68429;50.958;3.592;2024-01-30T02:47:25;10.90;99.90
54168;DHT22;68429;50.958;3.592;2024-01-30T02:49:51;10.90;99.90
54168;DHT22;68429;50.958;3.592;2024-01-30T02:52:16;10.90;99.90
54168;DHT22;68429;50.958;3.592;2024-01-30T02:54:42;10.80;99.90
54168;DHT22;68429;50.958;3.592;2024-01-30T02:57:08;10.80;99.90
54168;DHT22;68429;50.958;3.592;2024-01-30T02:59:33;10.80;99.90
54168;DHT22;68429;50.958;3.592;2024-01-30T03:02:01;10.90;99.90
54168;DHT22;68429;50.958;3.592;2024-01-30T03:04:27;10.90;99.90
54168;DHT22;68429;50.958;3.592;2024-01-30T03:06:52;10.90;99.90
54168;DHT22;68429;50.958;3.592;2024-01-30T03:09:18;11.00;99.90
54168;DHT22;68429;50.958;3.592;2024-01-30T03:11:44;11.10;99.90
54168;DHT22;68429;50.958;3.592;2024-01-30T03:14:09;11.10;99.90
54168;DHT22;68429;50.958;3.592;2024-01-30T03:16:38;11.00;99.90
54168;DHT22;68429;50.958;3.592;2024-01-30T03:19:05;11.00;99.90
54168;DHT22;68429;50.958;3.592;2024-01-30T03:21:33;10.90;99.90
54168;DHT22;68429;50.958;3.592;2024-01-30T03:23:58;10.90;99.90
54168;DHT22;68429;50.958;3.592;2024-01-30T03:26:25;10.90;99.90
54168;DHT22;68429;50.958;3.592;2024-01-30T03:28:50;10.80;99.90
54168;DHT22;68429;50.958;3.592;2024-01-30T03:31:16;10.70;99.90
54168;DHT22;68429;50.958;3.592;2024-01-30T03:33:42;10.70;99.90
54168;DHT22;68429;50.958;3.592;2024-01-30T03:36:09;10.80;99.90
54168;DHT22;68429;50.958;3.592;2024-01-30T03:38:35;10.80;99.90
54168;DHT22;68429;50.958;3.592;2024-01-30T03:41:01;10.70;99.90
54168;DHT22;68429;50.958;3.592;2024-01-30T03:43:27;10.60;99.90
54168;DHT22;68429;50.958;3.592;2024-01-30T03:45:52;10.60;99.90
54168;DHT22;68429;50.958;3.592;2024-01-30T03:48:19;10.60;99.90
54168;DHT22;68429;50.958;3.592;2024-01-30T03:50:45;10.60;99.90
54168;DHT22;68429;50.958;3.592;2024-01-30T03:53:11;10.60;99.90
54168;DHT22;68429;50.958;3.592;2024-01-30T03:55:36;10.60;99.90
54168;DHT22;68429;50.958;3.592;2024-01-30T03:58:02;10.70;99.90
54168;DHT22;68429;50.958;3.592;2024-01-30T04:00:28;10.80;99.90
54168;DHT22;68429;50.958;3.592;2024-01-30T04:02:53;10.80;99.90
54168;DHT22;68429;50.958;3.592;2024-01-30T04:05:19;10.60;99.90
54168;DHT22;68429;50.958;3.592;2024-01-30T04:07:45;10.50;99.90
54168;DHT22;68429;50.958;3.592;2024-01-30T04:10:10;10.50;99.90
54168;DHT22;68429;50.958;3.592;2024-01-30T04:12:36;10.50;99.90
54168;DHT22;68429;50.958;3.592;2024-01-30T04:15:02;10.50;99.90
54168;DHT22;68429;50.958;3.592;2024-01-30T04:17:28;10.60;99.90
54168;DHT22;68429;50.958;3.592;2024-01-30T04:19:55;10.60;99.90
54168;DHT22;68429;50.958;3.592;2024-01-30T04:22:20;10.70;99.90
54168;DHT22;68429;50.958;3.592;2024-01-30T04:24:46;10.70;99.90
54168;DHT22;68429;50.958;3.592;2024-01-30T04:27:12;10.70;99.90
54168;DHT22;68429;50.958;3.592;2024-01-30T04:29:38;10.80;99.90
54168;DHT22;68429;50.958;3.592;2024-01-30T04:32:04;11.00;99.90
54168;DHT22;68429;50.958;3.592;2024-01-30T04:34:30;11.10;99.90
54168;DHT22;68429;50.958;3.592;2024-01-30T04:36:55;11.00;99.90
54168;DHT22;68429;50.958;3.592;2024-01-30T04:39:21;11.00;99.90
54168;DHT22;68429;50.958;3.592;2024-01-30T04:41:47;11.10;99.90
54168;DHT22;68429;50.958;3.592;2024-01-30T04:44:13;11.10;99.90
54168;DHT22;68429;50.958;3.592;2024-01-30T04:46:39;11.00;99.90
54168;DHT22;68429;50.958;3.592;2024-01-30T04:49:05;11.10;99.90
54168;DHT22;68429;50.958;3.592;2024-01-30T04:51:33;11.10;99.90
54168;DHT22;68429;50.958;3.592;2024-01-30T04:53:58;11.20;99.90
54168;DHT22;68429;50.958;3.592;2024-01-30T04:56:24;11.10;99.90
54168;DHT22;68429;50.958;3.592;2024-01-30T04:58:50;11.20;99.90
54168;DHT22;68429;50.958;3.592;2024-01-30T05:01:16;11.10;99.90
54168;DHT22;68429;50.958;3.592;2024-01-30T05:03:42;11.10;99.90
54168;DHT22;68429;50.958;3.592;2024-01-30T05:06:07;11.10;99.90
54168;DHT22;68429;50.958;3.592;2024-01-30T05:08:33;10.90;99.90
54168;DHT22;68429;50.958;3.592;2024-01-30T05:11:02;11.00;99.90
54168;DHT22;68429;50.958;3.592;2024-01-30T05:13:30;11.00;99.90
54168;DHT22;68429;50.958;3.592;2024-01-30T05:15:56;10.90;99.90
54168;DHT22;68429;50.958;3.592;2024-01-30T05:18:21;10.80;99.90
54168;DHT22;68429;50.958;3.592;2024-01-30T05:20:47;10.90;99.90
54168;DHT22;68429;50.958;3.592;2024-01-30T05:23:13;11.00;99.90
54168;DHT22;68429;50.958;3.592;2024-01-30T05:25:38;10.80;99.90
54168;DHT22;68429;50.958;3.592;2024-01-30T05:28:04;10.50;99.90
54168;DHT22;68429;50.958;3.592;2024-01-30T05:30:30;10.50;99.90
54168;DHT22;68429;50.958;3.592;2024-01-30T05:32:56;10.40;99.90
54168;DHT22;68429;50.958;3.592;2024-01-30T05:35:21;10.40;99.90
54168;DHT22;68429;50.958;3.592;2024-01-30T05:37:48;10.50;99.90
54168;DHT22;68429;50.958;3.592;2024-01-30T05:40:15;10.50;99.90
54168;DHT22;68429;50.958;3.592;2024-01-30T05:42:40;10.70;99.90
54168;DHT22;68429;50.958;3.592;2024-01-30T05:45:06;10.70;99.90
54168;DHT22;68429;50.958;3.592;2024-01-30T05:47:32;10.70;99.90
54168;DHT22;68429;50.958;3.592;2024-01-30T05:49:57;10.70;99.90
54168;DHT22;68429;50.958;3.592;2024-01-30T05:52:23;10.60;99.90
54168;DHT22;68429;50.958;3.592;2024-01-30T05:54:49;10.70;99.90
54168;DHT22;68429;50.958;3.592;2024-01-30T05:57:14;10.70;99.90
54168;DHT22;68429;50.958;3.592;2024-01-30T05:59:40;10.70;99.90
54168;DHT22;68429;50.958;3.592;2024-01-30T06:02:06;10.70;99.90
54168;DHT22;68429;50.958;3.592;2024-01-30T06:04:31;10.80;99.90
54168;DHT22;68429;50.958;3.592;2024-01-30T06:06:57;10.80;99.90
54168;DHT22;68429;50.958;3.592;2024-01-30T06:09:22;10.80;99.90
54168;DHT22;68429;50.958;3.592;2024-01-30T06:11:48;10.80;99.90
54168;DHT22;68429;50.958;3.592;2024-01-30T06:14:14;10.70;99.90
54168;DHT22;68429;50.958;3.592;2024-01-30T06:16:39;10.80;99.90
54168;DHT22;68429;50.958;3.592;2024-01-30T06:19:05;10.70;99.90
54168;DHT22;68429;50.958;3.592;2024-01-30T06:21:31;10.70;99.90
54168;DHT22;68429;50.958;3.592;2024-01-30T06:23:57;10.70;99.90
54168;DHT22;68429;50.958;3.592;2024-01-30T06:26:23;10.80;99.90
54168;DHT22;68429;50.958;3.592;2024-01-30T06:28:49;10.80;99.90
54168;DHT22;68429;50.958;3.592;2024-01-30T06:31:14;10.80;99.90
54168;DHT22;68429;50.958;3.592;2024-01-30T06:33:40;10.90;99.90
54168;DHT22;68429;50.958;3.592;2024-01-30T06:36:07;10.90;99.90
54168;DHT22;68429;50.958;3.592;2024-01-30T06:38:33;11.00;99.90
54168;DHT22;68429;50.958;3.592;2024-01-30T06:40:59;11.00;99.90
54168;DHT22;68429;50.958;3.592;2024-01-30T06:43:24;11.00;99.90
54168;DHT22;68429;50.958;3.592;2024-01-30T06:45:50;11.00;99.90
54168;DHT22;68429;50.958;3.592;2024-01-30T06:48:17;11.10;99.90
54168;DHT22;68429;50.958;3.592;2024-01-30T06:50:42;11.10;99.90
54168;DHT22;68429;50.958;3.592;2024-01-30T06:53:08;11.10;99.90
54168;DHT22;68429;50.958;3.592;2024-01-30T06:55:34;11.10;99.90
54168;DHT22;68429;50.958;3.592;2024-01-30T06:57:59;11.10;99.90
54168;DHT22;68429;50.958;3.592;2024-01-30T07:00:28;11.10;99.90
54168;DHT22;68429;50.958;3.592;2024-01-30T07:02:54;11.10;99.90
54168;DHT22;68429;50.958;3.592;2024-01-30T07:05:20;11.10;99.90
54168;DHT22;68429;50.958;3.592;2024-01-30T07:07:47;10.90;99.90
54168;DHT22;68429;50.958;3.592;2024-01-30T07:10:13;11.00;99.90
54168;DHT22;68429;50.958;3.592;2024-01-30T07:12:38;11.00;99.90
54168;DHT22;68429;50.958;3.592;2024-01-30T07:15:05;11.10;99.90
54168;DHT22;68429;50.958;3.592;2024-01-30T07:17:34;11.00;99.90
54168;DHT22;68429;50.958;3.592;2024-01-30T07:19:59;10.90;99.90
54168;DHT22;68429;50.958;3.592;2024-01-30T07:22:25;11.00;99.90
54168;DHT22;68429;50.958;3.592;2024-01-30T07:24:51;11.10;99.90
54168;DHT22;68429;50.958;3.592;2024-01-30T07:27:17;11.10;99.90
54168;DHT22;68429;50.958;3.592;2024-01-30T07:29:43;11.00;99.90
54168;DHT22;68429;50.958;3.592;2024-01-30T07:32:09;11.10;99.90
54168;DHT22;68429;50.958;3.592;2024-01-30T07:34:35;11.00;99.90
54168;DHT22;68429;50.958;3.592;2024-01-30T07:37:01;11.00;99.90
54168;DHT22;68429;50.958;3.592;2024-01-30T07:39:28;11.00;99.90
54168;DHT22;68429;50.958;3.592;2024-01-30T07:41:54;11.00;99.90
54168;DHT22;68429;50.958;3.592;2024-01-30T07:44:20;11.10;99.90
54168;DHT22;68429;50.958;3.592;2024-01-30T07:46:46;11.00;99.90
54168;DHT22;68429;50.958;3.592;2024-01-30T07:49:11;11.00;99.90
54168;DHT22;68429;50.958;3.592;2024-01-30T07:51:39;11.00;99.90
54168;DHT22;68429;50.958;3.592;2024-01-30T07:54:11;10.90;99.90
54168;DHT22;68429;50.958;3.592;2024-01-30T07:56:39;11.00;99.90
54168;DHT22;68429;50.958;3.592;2024-01-30T07:59:05;11.00;99.90
54168;DHT22;68429;50.958;3.592;2024-01-30T08:01:31;11.00;99.90
54168;DHT22;68429;50.958;3.592;2024-01-30T08:03:56;10.90;99.90
54168;DHT22;68429;50.958;3.592;2024-01-30T08:06:22;11.00;99.90
54168;DHT22;68429;50.958;3.592;2024-01-30T08:08:48;11.00;99.90
54168;DHT22;68429;50.958;3.592;2024-01-30T08:11:13;10.90;99.90
54168;DHT22;68429;50.958;3.592;2024-01-30T08:13:39;10.90;99.90
54168;DHT22;68429;50.958;3.592;2024-01-30T08:16:05;10.90;99.90
54168;DHT22;68429;50.958;3.592;2024-01-30T08:18:31;10.90;99.90
54168;DHT22;68429;50.958;3.592;2024-01-30T08:20:57;10.90;99.90
54168;DHT22;68429;50.958;3.592;2024-01-30T08:23:22;10.80;99.90
54168;DHT22;68429;50.958;3.592;2024-01-30T08:25:48;10.80;99.90
54168;DHT22;68429;50.958;3.592;2024-01-30T08:28:14;10.90;99.90
54168;DHT22;68429;50.958;3.592;2024-01-30T08:30:40;10.90;99.90
54168;DHT22;68429;50.958;3.592;2024-01-30T08:33:05;10.90;99.90
54168;DHT22;68429;50.958;3.592;2024-01-30T08:35:31;10.90;99.90
54168;DHT22;68429;50.958;3.592;2024-01-30T08:37:59;11.00;99.90
54168;DHT22;68429;50.958;3.592;2024-01-30T08:40:25;10.90;99.90
54168;DHT22;68429;50.958;3.592;2024-01-30T08:42:51;10.90;99.90
54168;DHT22;68429;50.958;3.592;2024-01-30T08:45:16;10.90;99.90
54168;DHT22;68429;50.958;3.592;2024-01-30T08:47:42;10.90;99.90
54168;DHT22;68429;50.958;3.592;2024-01-30T08:50:08;10.80;99.90
54168;DHT22;68429;50.958;3.592;2024-01-30T08:52:33;10.80;99.90
54168;DHT22;68429;50.958;3.592;2024-01-30T08:55:00;10.80;99.90
54168;DHT22;68429;50.958;3.592;2024-01-30T08:57:25;10.90;99.90
54168;DHT22;68429;50.958;3.592;2024-01-30T08:59:54;10.90;99.90
54168;DHT22;68429;50.958;3.592;2024-01-30T09:02:20;11.00;99.90
54168;DHT22;68429;50.958;3.592;2024-01-30T09:04:46;11.00;99.90
54168;DHT22;68429;50.958;3.592;2024-01-30T09:07:12;11.10;99.90
54168;DHT22;68429;50.958;3.592;2024-01-30T09:09:39;11.00;99.90
54168;DHT22;68429;50.958;3.592;2024-01-30T09:12:08;11.10;99.90
54168;DHT22;68429;50.958;3.592;2024-01-30T09:14:37;11.20;99.90
54168;DHT22;68429;50.958;3.592;2024-01-30T09:17:03;11.20;99.90
54168;DHT22;68429;50.958;3.592;2024-01-30T09:19:30;11.10;99.90
54168;DHT22;68429;50.958;3.592;2024-01-30T09:21:56;11.20;99.90
54168;DHT22;68429;50.958;3.592;2024-01-30T09:24:22;11.20;99.90
54168;DHT22;68429;50.958;3.592;2024-01-30T09:26:48;11.10;99.90
54168;DHT22;68429;50.958;3.592;2024-01-30T09:29:13;11.10;99.90
54168;DHT22;68429;50.958;3.592;2024-01-30T09:31:39;11.10;99.90
54168;DHT22;68429;50.958;3.592;2024-01-30T09:34:08;11.10;99.90
54168;DHT22;68429;50.958;3.592;2024-01-30T09:36:34;11.00;99.90
54168;DHT22;68429;50.958;3.592;2024-01-30T09:39:00;11.20;99.90
54168;DHT22;68429;50.958;3.592;2024-01-30T09:41:27;11.10;99.90
54168;DHT22;68429;50.958;3.592;2024-01-30T09:43:57;11.10;99.90
54168;DHT22;68429;50.958;3.592;2024-01-30T09:46:26;11.00;99.90
54168;DHT22;68429;50.958;3.592;2024-01-30T09:48:57;10.90;99.90
54168;DHT22;68429;50.958;3.592;2024-01-30T09:51:24;11.30;99.90
54168;DHT22;68429;50.958;3.592;2024-01-30T09:53:51;11.80;99.90
54168;DHT22;68429;50.958;3.592;2024-01-30T09:56:21;11.80;99.90
54168;DHT22;68429;50.958;3.592;2024-01-30T09:58:47;11.40;99.90
54168;DHT22;68429;50.958;3.592;2024-01-30T10:01:15;11.30;99.90
54168;DHT22;68429;50.958;3.592;2024-01-30T10:03:44;11.00;99.90
54168;DHT22;68429;50.958;3.592;2024-01-30T10:06:11;10.80;99.90
54168;DHT22;68429;50.958;3.592;2024-01-30T10:08:37;10.70;99.90
54168;DHT22;68429;50.958;3.592;2024-01-30T10:11:03;10.50;99.90
54168;DHT22;68429;50.958;3.592;2024-01-30T10:13:29;10.50;99.90
54168;DHT22;68429;50.958;3.592;2024-01-30T10:15:55;10.50;99.90
54168;DHT22;68429;50.958;3.592;2024-01-30T10:18:24;10.50;99.90
54168;DHT22;68429;50.958;3.592;2024-01-30T10:20:51;10.30;99.90
54168;DHT22;68429;50.958;3.592;2024-01-30T10:23:18;10.50;99.90
54168;DHT22;68429;50.958;3.592;2024-01-30T10:25:45;10.50;99.90
54168;DHT22;68429;50.958;3.592;2024-01-30T10:28:11;10.60;99.90
54168;DHT22;68429;50.958;3.592;2024-01-30T10:30:37;10.70;99.90
54168;DHT22;68429;50.958;3.592;2024-01-30T10:33:02;11.00;99.90
54168;DHT22;68429;50.958;3.592;2024-01-30T10:35:28;11.20;99.90
54168;DHT22;68429;50.958;3.592;2024-01-30T10:37:57;11.00;99.90
54168;DHT22;68429;50.958;3.592;2024-01-30T10:40:28;11.00;99.90
54168;DHT22;68429;50.958;3.592;2024-01-30T10:42:55;11.10;99.90
54168;DHT22;68429;50.958;3.592;2024-01-30T10:45:22;11.00;99.90
54168;DHT22;68429;50.958;3.592;2024-01-30T10:47:53;11.00;99.90
54168;DHT22;68429;50.958;3.592;2024-01-30T10:50:20;11.00;99.90
54168;DHT22;68429;50.958;3.592;2024-01-30T10:52:46;11.10;99.90
54168;DHT22;68429;50.958;3.592;2024-01-30T10:55:14;11.00;99.90
54168;DHT22;68429;50.958;3.592;2024-01-30T10:57:41;11.10;99.90
54168;DHT22;68429;50.958;3.592;2024-01-30T11:00:08;11.10;99.90
54168;DHT22;68429;50.958;3.592;2024-01-30T11:02:40;10.90;99.90
54168;DHT22;68429;50.958;3.592;2024-01-30T11:05:06;10.90;99.90
54168;DHT22;68429;50.958;3.592;2024-01-30T11:07:32;11.00;99.90
54168;DHT22;68429;50.958;3.592;2024-01-30T11:12:27;10.90;99.90
54168;DHT22;68429;50.958;3.592;2024-01-30T11:15:10;11.00;99.90
54168;DHT22;68429;50.958;3.592;2024-01-30T11:17:47;10.90;99.90
54168;DHT22;68429;50.958;3.592;2024-01-30T11:20:15;10.90;99.90
54168;DHT22;68429;50.958;3.592;2024-01-30T11:22:46;10.90;99.90
54168;DHT22;68429;50.958;3.592;2024-01-30T11:25:16;11.00;99.90
54168;DHT22;68429;50.958;3.592;2024-01-30T11:27:46;11.10;99.90
54168;DHT22;68429;50.958;3.592;2024-01-30T11:30:41;11.10;99.90
54168;DHT22;68429;50.958;3.592;2024-01-30T11:33:09;11.10;99.90
54168;DHT22;68429;50.958;3.592;2024-01-30T11:35:38;10.90;99.90
54168;DHT22;68429;50.958;3.592;2024-01-30T11:38:05;10.80;99.90
54168;DHT22;68429;50.958;3.592;2024-01-30T11:40:32;10.90;99.90
54168;DHT22;68429;50.958;3.592;2024-01-30T11:43:00;10.80;99.90
54168;DHT22;68429;50.958;3.592;2024-01-30T11:45:27;10.80;99.90
54168;DHT22;68429;50.958;3.592;2024-01-30T11:47:53;10.60;99.90
54168;DHT22;68429;50.958;3.592;2024-01-30T11:50:19;10.50;99.90
54168;DHT22;68429;50.958;3.592;2024-01-30T11:52:45;10.40;99.90
54168;DHT22;68429;50.958;3.592;2024-01-30T11:55:12;10.50;99.90
54168;DHT22;68429;50.958;3.592;2024-01-30T11:57:38;10.50;99.90
54168;DHT22;68429;50.958;3.592;2024-01-30T12:00:04;10.40;99.90
54168;DHT22;68429;50.958;3.592;2024-01-30T12:02:39;10.30;99.90
54168;DHT22;68429;50.958;3.592;2024-01-30T12:05:06;10.30;99.90
54168;DHT22;68429;50.958;3.592;2024-01-30T12:07:32;10.40;99.90
54168;DHT22;68429;50.958;3.592;2024-01-30T12:09:58;10.30;99.90
54168;DHT22;68429;50.958;3.592;2024-01-30T12:12:27;10.30;99.90
54168;DHT22;68429;50.958;3.592;2024-01-30T12:14:56;10.30;99.90
54168;DHT22;68429;50.958;3.592;2024-01-30T12:17:31;10.30;99.90
54168;DHT22;68429;50.958;3.592;2024-01-30T12:20:07;10.20;99.90
54168;DHT22;68429;50.958;3.592;2024-01-30T12:22:43;10.20;99.90
54168;DHT22;68429;50.958;3.592;2024-01-30T12:25:10;10.10;99.90
54168;DHT22;68429;50.958;3.592;2024-01-30T12:27:37;10.10;99.90
54168;DHT22;68429;50.958;3.592;2024-01-30T12:30:11;10.00;99.90
54168;DHT22;68429;50.958;3.592;2024-01-30T12:32:40;10.10;99.90
54168;DHT22;68429;50.958;3.592;2024-01-30T12:35:14;10.20;99.90
54168;DHT22;68429;50.958;3.592;2024-01-30T12:37:41;10.20;99.90
54168;DHT22;68429;50.958;3.592;2024-01-30T12:40:11;10.20;99.90
54168;DHT22;68429;50.958;3.592;2024-01-30T12:42:38;10.10;99.90
54168;DHT22;68429;50.958;3.592;2024-01-30T12:45:05;10.10;99.90
54168;DHT22;68429;50.958;3.592;2024-01-30T12:47:31;10.00;99.90
54168;DHT22;68429;50.958;3.592;2024-01-30T12:49:57;10.10;99.90
54168;DHT22;68429;50.958;3.592;2024-01-30T12:52:23;10.00;99.90
54168;DHT22;68429;50.958;3.592;2024-01-30T12:54:49;10.00;99.90
54168;DHT22;68429;50.958;3.592;2024-01-30T12:57:16;10.00;99.90
54168;DHT22;68429;50.958;3.592;2024-01-30T12:59:42;10.10;99.90
54168;DHT22;68429;50.958;3.592;2024-01-30T13:02:07;10.20;99.90
54168;DHT22;68429;50.958;3.592;2024-01-30T13:04:34;10.10;99.90
54168;DHT22;68429;50.958;3.592;2024-01-30T13:07:00;10.10;99.90
54168;DHT22;68429;50.958;3.592;2024-01-30T13:09:26;10.10;99.90
54168;DHT22;68429;50.958;3.592;2024-01-30T13:11:52;10.00;99.90
54168;DHT22;68429;50.958;3.592;2024-01-30T13:14:18;10.00;99.90
54168;DHT22;68429;50.958;3.592;2024-01-30T13:16:44;10.10;99.90
54168;DHT22;68429;50.958;3.592;2024-01-30T13:19:10;10.00;99.90
54168;DHT22;68429;50.958;3.592;2024-01-30T13:21:36;9.90;99.90
54168;DHT22;68429;50.958;3.592;2024-01-30T13:24:02;10.00;99.90
54168;DHT22;68429;50.958;3.592;2024-01-30T13:26:27;10.10;99.90
54168;DHT22;68429;50.958;3.592;2024-01-30T13:28:54;10.10;99.90
54168;DHT22;68429;50.958;3.592;2024-01-30T13:31:19;10.10;99.90
54168;DHT22;68429;50.958;3.592;2024-01-30T13:33:46;10.10;99.90
54168;DHT22;68429;50.958;3.592;2024-01-30T13:36:12;10.00;99.90
54168;DHT22;68429;50.958;3.592;2024-01-30T13:38:38;10.10;99.90
54168;DHT22;68429;50.958;3.592;2024-01-30T13:41:04;10.00;99.90
54168;DHT22;68429;50.958;3.592;2024-01-30T13:43:30;10.00;99.90
54168;DHT22;68429;50.958;3.592;2024-01-30T13:45:56;10.00;99.90
54168;DHT22;68429;50.958;3.592;2024-01-30T13:48:21;9.90;99.90
54168;DHT22;68429;50.958;3.592;2024-01-30T13:50:47;9.90;99.90
54168;DHT22;68429;50.958;3.592;2024-01-30T13:53:13;9.90;99.90
54168;DHT22;68429;50.958;3.592;2024-01-30T13:55:39;9.90;99.90
54168;DHT22;68429;50.958;3.592;2024-01-30T13:58:05;9.90;99.90
54168;DHT22;68429;50.958;3.592;2024-01-30T14:00:31;9.70;99.90
54168;DHT22;68429;50.958;3.592;2024-01-30T14:02:57;9.80;99.90
54168;DHT22;68429;50.958;3.592;2024-01-30T14:05:24;9.90;99.90
54168;DHT22;68429;50.958;3.592;2024-01-30T14:07:51;9.80;99.90
54168;DHT22;68429;50.958;3.592;2024-01-30T14:10:17;9.90;99.90
54168;DHT22;68429;50.958;3.592;2024-01-30T14:12:44;9.90;99.90
54168;DHT22;68429;50.958;3.592;2024-01-30T14:15:10;9.90;99.90
54168;DHT22;68429;50.958;3.592;2024-01-30T14:17:36;9.90;99.90
54168;DHT22;68429;50.958;3.592;2024-01-30T14:20:06;9.90;99.90
54168;DHT22;68429;50.958;3.592;2024-01-30T14:22:33;9.90;99.90
54168;DHT22;68429;50.958;3.592;2024-01-30T14:25:03;9.90;99.90
54168;DHT22;68429;50.958;3.592;2024-01-30T14:27:30;9.80;99.90
54168;DHT22;68429;50.958;3.592;2024-01-30T14:29:56;9.70;99.90
54168;DHT22;68429;50.958;3.592;2024-01-30T14:32:22;9.70;99.90
54168;DHT22;68429;50.958;3.592;2024-01-30T14:34:49;9.50;99.90
54168;DHT22;68429;50.958;3.592;2024-01-30T14:37:15;9.40;99.90
54168;DHT22;68429;50.958;3.592;2024-01-30T14:39:40;9.50;99.90
54168;DHT22;68429;50.958;3.592;2024-01-30T14:42:07;9.50;99.90
54168;DHT22;68429;50.958;3.592;2024-01-30T14:44:32;9.40;99.90
54168;DHT22;68429;50.958;3.592;2024-01-30T14:46:59;9.50;99.90
54168;DHT22;68429;50.958;3.592;2024-01-30T14:49:25;9.40;99.90
54168;DHT22;68429;50.958;3.592;2024-01-30T14:51:51;9.50;99.90
54168;DHT22;68429;50.958;3.592;2024-01-30T14:54:17;9.50;99.90
54168;DHT22;68429;50.958;3.592;2024-01-30T14:56:44;9.60;99.90
54168;DHT22;68429;50.958;3.592;2024-01-30T14:59:10;9.50;99.90
54168;DHT22;68429;50.958;3.592;2024-01-30T15:01:35;9.50;99.90
54168;DHT22;68429;50.958;3.592;2024-01-30T15:04:01;9.30;99.90
54168;DHT22;68429;50.958;3.592;2024-01-30T15:06:28;9.30;99.90
54168;DHT22;68429;50.958;3.592;2024-01-30T15:08:54;9.30;99.90
54168;DHT22;68429;50.958;3.592;2024-01-30T15:11:19;9.20;99.90
54168;DHT22;68429;50.958;3.592;2024-01-30T15:13:45;9.10;99.90
54168;DHT22;68429;50.958;3.592;2024-01-30T15:16:11;9.10;99.90
54168;DHT22;68429;50.958;3.592;2024-01-30T15:18:37;9.00;99.90
54168;DHT22;68429;50.958;3.592;2024-01-30T15:21:03;9.00;99.90
54168;DHT22;68429;50.958;3.592;2024-01-30T15:23:28;9.00;99.90
54168;DHT22;68429;50.958;3.592;2024-01-30T15:25:54;9.00;99.90
54168;DHT22;68429;50.958;3.592;2024-01-30T15:28:33;9.10;99.90
54168;DHT22;68429;50.958;3.592;2024-01-30T15:30:59;9.00;99.90